Nikolaos A — SW8410 — position and weather

sailwx.info

Track history (hours):
 
Tides and Currents Weather Stations Pressure Air Temp Water Temp Dewpoint Dewpoint Depression Visibility Wind Speed Wind Dir Waves Ship Positions

Nikolaos A

Last reported at 2018-May-24 08:56 UTC. Time now 2018-Jun-18 02:16 UTC.
Position N 37°57' E 023°37'.
Warning: this ship's position is 24 days out of date.

Length 29 m; draft 2.8 m.

Type: Fishing. MMSI: 237482000.

Date/timePositionNaut miles runAvg speedWind from/ knotsBaromVisibWave heightAir tempDewpointWater temp
2018-May-24 08:56N 37°57' E 023°37'0 0.0
2018-May-24 08:29N 37°57' E 023°37'0 0.0
2018-May-24 07:59N 37°57' E 023°37'0 0.0
2018-May-24 07:29N 37°57' E 023°37'0 0.0
2018-May-24 06:59N 37°57' E 023°37'0 0.0
2018-May-24 06:29N 37°57' E 023°37'0 0.0
2018-May-24 05:59N 37°57' E 023°37'0 0.0
2018-May-24 05:29N 37°57' E 023°37'0 0.0
2018-May-24 04:59N 37°57' E 023°37'0 0.0
2018-May-24 04:29N 37°57' E 023°37'0 0.0
2018-May-24 03:56N 37°57' E 023°37'0 0.0
2018-May-24 03:29N 37°57' E 023°37'0 0.0
2018-May-24 02:59N 37°57' E 023°37'0 0.0
2018-May-24 02:29N 37°57' E 023°37'0 0.0
2018-May-24 01:59N 37°57' E 023°37'0 0.0
2018-May-24 01:29N 37°57' E 023°37'0 0.0
2018-May-24 00:59N 37°57' E 023°37'0 0.0
2018-May-24 00:29N 37°57' E 023°37'0 0.0
2018-May-23 23:59N 37°57' E 023°37'0 0.0
2018-May-23 23:29N 37°57' E 023°37'0 0.0
2018-May-23 22:59N 37°57' E 023°37'0 0.0
2018-May-23 22:29N 37°57' E 023°37'0 0.0
2018-May-23 21:59N 37°57' E 023°37'0 0.0
2018-May-23 21:29N 37°57' E 023°37'0 0.0
2018-May-23 20:59N 37°57' E 023°37'0 0.0
2018-May-23 20:29N 37°57' E 023°37'3 7.2
2018-May-23 20:00N 37°54' E 023°36'5 9.2
2018-May-23 19:30N 37°50' E 023°36'5 9.0
2018-May-23 19:00N 37°45' E 023°38'4 7.6
2018-May-23 18:31N 37°42' E 023°40'1 1.2
2018-May-23 17:53N 37°41' E 023°40'1 0.0
2018-May-22 07:24N 37°41' E 023°39'  
2018-May-17 08:39N 37°32' E 024°44'1 3.3
2018-May-17 08:29N 37°31' E 024°45'3 3.6
2018-May-17 07:46N 37°30' E 024°47'1 1.2
2018-May-17 07:08N 37°29' E 024°47'0 3.2
2018-May-17 06:59N 37°29' E 024°46'2 3.2
2018-May-17 06:30N 37°27' E 024°45'2 3.2
2018-May-17 05:57N 37°26' E 024°45'8 3.3
2018-May-17 03:38N 37°18' E 024°47'1 8.6
2018-May-17 03:30N 37°19' E 024°48'2 3.2
2018-May-17 03:00N 37°20' E 024°50'2 3.2
2018-May-17 02:30N 37°20' E 024°52'2 3.1
2018-May-17 01:56N 37°19' E 024°54'1 3.2
2018-May-17 01:30N 37°18' E 024°55'2 3.2
2018-May-17 01:00N 37°18' E 024°57'2 3.5
2018-May-17 00:25N 37°18' E 024°60'4 1.6
2018-May-16 21:36N 37°14' E 025°02'1 5.6
2018-May-16 21:31N 37°14' E 025°02'1 1.1
2018-May-16 20:54N 37°14' E 025°01'1 3.3
2018-May-16 20:31N 37°14' E 024°60'2 3.1
2018-May-16 20:00N 37°15' E 024°58'2 3.2
2018-May-16 19:30N 37°16' E 024°56'2 3.2
2018-May-16 19:00N 37°16' E 024°55'2 3.2
2018-May-16 18:30N 37°18' E 024°54'2 3.3
2018-May-16 17:57N 37°20' E 024°53'3 5.9
2018-May-16 17:30N 37°17' E 024°55'0 0.6
2018-May-16 17:00N 37°17' E 024°54'2 3.2
2018-May-16 16:30N 37°19' E 024°54'2 3.2
2018-May-16 16:00N 37°20' E 024°53'2 4.6
2018-May-16 15:30N 37°21' E 024°50'0 0.8
2018-May-16 15:00N 37°21' E 024°50'2 3.2
2018-May-16 14:29N 37°20' E 024°51'2 3.3
2018-May-16 13:45N 37°18' E 024°53'1 3.2
2018-May-16 13:26N 37°17' E 024°54'1 3.2
2018-May-16 13:00N 37°16' E 024°55'2 3.2
2018-May-16 12:30N 37°15' E 024°55'2 3.3
2018-May-16 12:00N 37°13' E 024°55'0 0.8
2018-May-16 11:31N 37°13' E 024°55'2 3.2
2018-May-16 11:00N 37°14' E 024°54'2 3.2
2018-May-16 10:30N 37°15' E 024°53'2 3.3
2018-May-16 10:00N 37°17' E 024°52'2 3.3
2018-May-16 09:31N 37°18' E 024°51'2 3.2
2018-May-16 09:00N 37°19' E 024°50'2 3.6
2018-May-16 08:30N 37°21' E 024°50'5 3.4
2018-May-16 07:10N 37°23' E 024°45'1 3.3
2018-May-16 06:59N 37°23' E 024°45'2 3.3
2018-May-16 06:30N 37°25' E 024°45'2 3.2
2018-May-16 06:00N 37°27' E 024°45'2 3.2
2018-May-16 05:30N 37°28' E 024°45'2 3.2
2018-May-16 05:00N 37°30' E 024°45'2 0.1
2018-May-15 06:26N 37°31' E 024°46'8 3.2
2018-May-15 03:56N 37°23' E 024°45'1 3.2
2018-May-15 03:30N 37°22' E 024°45'2 3.2
2018-May-15 02:57N 37°20' E 024°45'2 4.3
2018-May-15 02:27N 37°18' E 024°47'1 2.5
2018-May-15 01:59N 37°19' E 024°48'2 3.2
2018-May-15 01:30N 37°20' E 024°50'2 3.2
2018-May-15 01:00N 37°20' E 024°52'2 3.1
2018-May-15 00:26N 37°19' E 024°53'1 3.1
2018-May-15 00:00N 37°18' E 024°55'2 3.2
2018-May-14 23:30N 37°18' E 024°57'2 3.2
2018-May-14 23:00N 37°18' E 024°59'16 2.6
2018-May-14 16:48N 37°29' E 024°44'2 3.1
2018-May-14 16:03N 37°27' E 024°45'0 3.2
2018-May-14 15:58N 37°27' E 024°45'2 3.3
2018-May-14 15:30N 37°25' E 024°45'5 2.7
2018-May-14 13:47N 37°20' E 024°45'1 2.5
2018-May-14 13:28N 37°21' E 024°46'3 3.2
2018-May-14 12:23N 37°24' E 024°47'1 3.2
2018-May-14 12:00N 37°26' E 024°47'2 3.2
2018-May-14 11:22N 37°28' E 024°46'3 1.8
2018-May-14 09:35N 37°31' E 024°46'1 3.3
2018-May-14 09:18N 37°30' E 024°45'  
Track history (hours):
 
Tides and Currents Weather Stations Pressure Air Temp Water Temp Dewpoint Dewpoint Depression Visibility Wind Speed Wind Dir Waves Ship Positions

Nikolaos A

Last reported at 2018-May-24 08:56 UTC. Time now 2018-Jun-18 02:16 UTC.
Position N 37°57' E 023°37'.
Warning: this ship's position is 24 days out of date.

Length 29 m; draft 2.8 m.

Type: Fishing. MMSI: 237482000.

Date/timePositionNaut miles runAvg speedWind from/ knotsBaromVisibWave heightAir tempDewpointWater temp
2018-May-24 08:56N 37°57' E 023°37'0 0.0
2018-May-24 08:29N 37°57' E 023°37'0 0.0
2018-May-24 07:59N 37°57' E 023°37'0 0.0
2018-May-24 07:29N 37°57' E 023°37'0 0.0
2018-May-24 06:59N 37°57' E 023°37'0 0.0
2018-May-24 06:29N 37°57' E 023°37'0 0.0
2018-May-24 05:59N 37°57' E 023°37'0 0.0
2018-May-24 05:29N 37°57' E 023°37'0 0.0
2018-May-24 04:59N 37°57' E 023°37'0 0.0
2018-May-24 04:29N 37°57' E 023°37'0 0.0
2018-May-24 03:56N 37°57' E 023°37'0 0.0
2018-May-24 03:29N 37°57' E 023°37'0 0.0
2018-May-24 02:59N 37°57' E 023°37'0 0.0
2018-May-24 02:29N 37°57' E 023°37'0 0.0
2018-May-24 01:59N 37°57' E 023°37'0 0.0
2018-May-24 01:29N 37°57' E 023°37'0 0.0
2018-May-24 00:59N 37°57' E 023°37'0 0.0
2018-May-24 00:29N 37°57' E 023°37'0 0.0
2018-May-23 23:59N 37°57' E 023°37'0 0.0
2018-May-23 23:29N 37°57' E 023°37'0 0.0
2018-May-23 22:59N 37°57' E 023°37'0 0.0
2018-May-23 22:29N 37°57' E 023°37'0 0.0
2018-May-23 21:59N 37°57' E 023°37'0 0.0
2018-May-23 21:29N 37°57' E 023°37'0 0.0
2018-May-23 20:59N 37°57' E 023°37'0 0.0
2018-May-23 20:29N 37°57' E 023°37'3 7.2
2018-May-23 20:00N 37°54' E 023°36'5 9.2
2018-May-23 19:30N 37°50' E 023°36'5 9.0
2018-May-23 19:00N 37°45' E 023°38'4 7.6
2018-May-23 18:31N 37°42' E 023°40'1 1.2
2018-May-23 17:53N 37°41' E 023°40'1 0.0
2018-May-22 07:24N 37°41' E 023°39'  
2018-May-17 08:39N 37°32' E 024°44'1 3.3
2018-May-17 08:29N 37°31' E 024°45'3 3.6
2018-May-17 07:46N 37°30' E 024°47'1 1.2
2018-May-17 07:08N 37°29' E 024°47'0 3.2
2018-May-17 06:59N 37°29' E 024°46'2 3.2
2018-May-17 06:30N 37°27' E 024°45'2 3.2
2018-May-17 05:57N 37°26' E 024°45'8 3.3
2018-May-17 03:38N 37°18' E 024°47'1 8.6
2018-May-17 03:30N 37°19' E 024°48'2 3.2
2018-May-17 03:00N 37°20' E 024°50'2 3.2
2018-May-17 02:30N 37°20' E 024°52'2 3.1
2018-May-17 01:56N 37°19' E 024°54'1 3.2
2018-May-17 01:30N 37°18' E 024°55'2 3.2
2018-May-17 01:00N 37°18' E 024°57'2 3.5
2018-May-17 00:25N 37°18' E 024°60'4 1.6
2018-May-16 21:36N 37°14' E 025°02'1 5.6
2018-May-16 21:31N 37°14' E 025°02'1 1.1
2018-May-16 20:54N 37°14' E 025°01'1 3.3
2018-May-16 20:31N 37°14' E 024°60'2 3.1
2018-May-16 20:00N 37°15' E 024°58'2 3.2
2018-May-16 19:30N 37°16' E 024°56'2 3.2
2018-May-16 19:00N 37°16' E 024°55'2 3.2
2018-May-16 18:30N 37°18' E 024°54'2 3.3
2018-May-16 17:57N 37°20' E 024°53'3 5.9
2018-May-16 17:30N 37°17' E 024°55'0 0.6
2018-May-16 17:00N 37°17' E 024°54'2 3.2
2018-May-16 16:30N 37°19' E 024°54'2 3.2
2018-May-16 16:00N 37°20' E 024°53'2 4.6
2018-May-16 15:30N 37°21' E 024°50'0 0.8
2018-May-16 15:00N 37°21' E 024°50'2 3.2
2018-May-16 14:29N 37°20' E 024°51'2 3.3
2018-May-16 13:45N 37°18' E 024°53'1 3.2
2018-May-16 13:26N 37°17' E 024°54'1 3.2
2018-May-16 13:00N 37°16' E 024°55'2 3.2
2018-May-16 12:30N 37°15' E 024°55'2 3.3
2018-May-16 12:00N 37°13' E 024°55'0 0.8
2018-May-16 11:31N 37°13' E 024°55'2 3.2
2018-May-16 11:00N 37°14' E 024°54'2 3.2
2018-May-16 10:30N 37°15' E 024°53'2 3.3
2018-May-16 10:00N 37°17' E 024°52'2 3.3
2018-May-16 09:31N 37°18' E 024°51'2 3.2
2018-May-16 09:00N 37°19' E 024°50'2 3.6
2018-May-16 08:30N 37°21' E 024°50'5 3.4
2018-May-16 07:10N 37°23' E 024°45'1 3.3
2018-May-16 06:59N 37°23' E 024°45'2 3.3
2018-May-16 06:30N 37°25' E 024°45'2 3.2
2018-May-16 06:00N 37°27' E 024°45'2 3.2
2018-May-16 05:30N 37°28' E 024°45'2 3.2
2018-May-16 05:00N 37°30' E 024°45'2 0.1
2018-May-15 06:26N 37°31' E 024°46'8 3.2
2018-May-15 03:56N 37°23' E 024°45'1 3.2
2018-May-15 03:30N 37°22' E 024°45'2 3.2
2018-May-15 02:57N 37°20' E 024°45'2 4.3
2018-May-15 02:27N 37°18' E 024°47'1 2.5
2018-May-15 01:59N 37°19' E 024°48'2 3.2
2018-May-15 01:30N 37°20' E 024°50'2 3.2
2018-May-15 01:00N 37°20' E 024°52'2 3.1
2018-May-15 00:26N 37°19' E 024°53'1 3.1
2018-May-15 00:00N 37°18' E 024°55'2 3.2
2018-May-14 23:30N 37°18' E 024°57'2 3.2
2018-May-14 23:00N 37°18' E 024°59'16 2.6
2018-May-14 16:48N 37°29' E 024°44'2 3.1
2018-May-14 16:03N 37°27' E 024°45'0 3.2
2018-May-14 15:58N 37°27' E 024°45'2 3.3
2018-May-14 15:30N 37°25' E 024°45'5 2.7
2018-May-14 13:47N 37°20' E 024°45'1 2.5
2018-May-14 13:28N 37°21' E 024°46'3 3.2
2018-May-14 12:23N 37°24' E 024°47'1 3.2
2018-May-14 12:00N 37°26' E 024°47'2 3.2
2018-May-14 11:22N 37°28' E 024°46'3 1.8
2018-May-14 09:35N 37°31' E 024°46'1 3.3
2018-May-14 09:18N 37°30' E 024°45'  

Dump ship's entire track history